createdAt,value
2019-05-30T00:00:17.885Z,0.00
2019-05-30T00:01:15.697Z,0.00
2019-05-30T00:02:15.671Z,0.00
2019-05-30T00:03:15.661Z,0.00
2019-05-30T00:04:36.625Z,0.00
2019-05-30T00:05:15.593Z,0.00
2019-05-30T00:06:15.566Z,0.00
2019-05-30T00:07:15.540Z,0.00
2019-05-30T00:08:15.515Z,0.00
2019-05-30T00:09:15.498Z,0.00
2019-05-30T00:10:36.463Z,0.00
2019-05-30T00:11:15.436Z,0.00
2019-05-30T00:12:15.412Z,0.00
2019-05-30T00:13:15.386Z,0.00
2019-05-30T00:14:15.363Z,0.00
2019-05-30T00:15:15.334Z,0.00
2019-05-30T00:16:36.316Z,0.00
2019-05-30T00:17:15.287Z,0.00
2019-05-30T00:18:15.254Z,0.00
2019-05-30T00:19:15.251Z,0.00
2019-05-30T00:20:15.212Z,0.00
2019-05-30T00:21:15.184Z,0.00
2019-05-30T00:22:36.154Z,0.00
2019-05-30T00:23:15.130Z,0.00
2019-05-30T00:24:15.106Z,0.00
2019-05-30T00:25:15.086Z,0.00
2019-05-30T00:26:15.051Z,0.00
2019-05-30T00:27:15.030Z,0.00
2019-05-30T00:28:36.012Z,0.00
2019-05-30T00:29:14.978Z,0.00
2019-05-30T00:30:24.312Z,0.00
2019-05-30T00:31:14.944Z,0.00
2019-05-30T00:32:14.901Z,0.00
2019-05-30T00:33:14.873Z,0.00
2019-05-30T00:34:35.854Z,0.00
2019-05-30T00:35:14.823Z,0.00
2019-05-30T00:36:14.800Z,0.00
2019-05-30T00:37:14.772Z,0.00
2019-05-30T00:38:14.753Z,0.00
2019-05-30T00:39:14.727Z,0.00
2019-05-30T00:40:35.709Z,0.00
2019-05-30T00:41:14.681Z,0.00
2019-05-30T00:42:14.643Z,0.00
2019-05-30T00:43:14.623Z,0.00
2019-05-30T00:44:14.595Z,0.00
2019-05-30T00:45:20.912Z,0.00
2019-05-30T00:46:35.566Z,0.00
2019-05-30T00:47:14.531Z,0.00
2019-05-30T00:48:14.492Z,0.00
2019-05-30T00:49:14.464Z,0.00
2019-05-30T00:50:14.447Z,0.00
2019-05-30T00:51:14.423Z,0.00
2019-05-30T00:52:35.392Z,0.00
2019-05-30T00:53:14.364Z,0.00
2019-05-30T00:54:14.337Z,0.00
2019-05-30T00:55:14.310Z,0.00
2019-05-30T00:56:14.292Z,0.00
2019-05-30T00:57:14.273Z,0.00
2019-05-30T00:58:35.244Z,0.00
2019-05-30T00:59:14.218Z,0.00
2019-05-30T01:00:14.186Z,0.00
2019-05-30T01:01:14.160Z,0.00
2019-05-30T01:02:14.140Z,0.00
2019-05-30T01:03:14.103Z,0.00
2019-05-30T01:04:35.078Z,0.00
2019-05-30T01:05:14.057Z,0.00
2019-05-30T01:06:14.024Z,0.00
2019-05-30T01:07:14.002Z,0.00
2019-05-30T01:08:13.972Z,0.00
2019-05-30T01:09:13.950Z,0.00
2019-05-30T01:10:34.943Z,0.00
2019-05-30T01:11:13.903Z,0.00
2019-05-30T01:12:13.873Z,0.00
2019-05-30T01:13:13.843Z,0.00
2019-05-30T01:14:13.833Z,0.00
2019-05-30T01:15:13.796Z,0.00
2019-05-30T01:16:34.770Z,0.00
2019-05-30T01:17:13.747Z,0.00
2019-05-30T01:18:13.725Z,0.00
2019-05-30T01:19:13.696Z,0.00
2019-05-30T01:20:13.671Z,0.00
2019-05-30T01:21:13.644Z,0.00
2019-05-30T01:22:34.615Z,0.00
2019-05-30T01:23:13.592Z,0.00
2019-05-30T01:24:13.566Z,0.00
2019-05-30T01:25:13.537Z,0.00
2019-05-30T01:26:13.514Z,0.00
2019-05-30T01:27:13.491Z,0.00
2019-05-30T01:28:34.461Z,0.00
2019-05-30T01:29:13.441Z,0.00
2019-05-30T01:30:13.414Z,0.00
2019-05-30T01:31:13.399Z,0.00
2019-05-30T01:32:13.363Z,0.00
2019-05-30T01:33:13.334Z,0.00
2019-05-30T01:34:34.311Z,0.00
2019-05-30T01:35:13.277Z,0.00
2019-05-30T01:36:13.258Z,0.00
2019-05-30T01:37:13.226Z,0.00
2019-05-30T01:38:13.197Z,0.00
2019-05-30T01:39:13.175Z,0.00
2019-05-30T01:40:34.165Z,0.00
2019-05-30T01:41:13.122Z,0.00
2019-05-30T01:42:13.095Z,0.00
2019-05-30T01:43:13.076Z,0.00
2019-05-30T01:44:13.048Z,0.00
2019-05-30T01:45:13.022Z,0.00
2019-05-30T01:46:34.006Z,0.00
2019-05-30T01:47:12.968Z,0.00
2019-05-30T01:48:12.943Z,0.00
2019-05-30T01:49:12.917Z,0.00
2019-05-30T01:50:12.885Z,0.00
2019-05-30T01:51:12.866Z,0.00
2019-05-30T01:52:33.846Z,0.00
2019-05-30T01:53:12.811Z,0.00
2019-05-30T01:54:12.785Z,0.00
2019-05-30T01:55:12.771Z,0.00
2019-05-30T01:56:12.756Z,0.00
2019-05-30T01:57:12.707Z,0.00
2019-05-30T01:58:33.689Z,0.00
2019-05-30T01:59:12.659Z,0.00
2019-05-30T02:00:20.693Z,0.00
2019-05-30T02:01:22.670Z,0.00
2019-05-30T02:02:12.582Z,0.00
2019-05-30T02:03:12.551Z,0.00
2019-05-30T02:04:33.527Z,0.00
2019-05-30T02:05:12.506Z,0.00
2019-05-30T02:06:12.470Z,0.00
2019-05-30T02:07:12.476Z,0.00
2019-05-30T02:08:12.420Z,0.00
2019-05-30T02:09:12.457Z,0.00
2019-05-30T02:10:33.380Z,0.00
2019-05-30T02:11:12.342Z,0.00
2019-05-30T02:12:12.323Z,0.00
2019-05-30T02:13:12.289Z,0.00
2019-05-30T02:14:12.267Z,0.00
2019-05-30T02:15:12.249Z,0.00
2019-05-30T02:16:33.239Z,0.00
2019-05-30T02:17:12.187Z,0.00
2019-05-30T02:18:12.160Z,0.00
2019-05-30T02:19:12.145Z,0.00
2019-05-30T02:20:12.112Z,0.00
2019-05-30T02:21:12.092Z,0.00
2019-05-30T02:22:33.061Z,0.00
2019-05-30T02:23:12.034Z,0.00
2019-05-30T02:24:12.339Z,0.00
2019-05-30T02:25:11.989Z,0.00
2019-05-30T02:26:11.961Z,0.00
2019-05-30T02:27:11.935Z,0.00
2019-05-30T02:28:32.909Z,0.00
2019-05-30T02:29:11.879Z,0.00
2019-05-30T02:30:14.714Z,0.00
2019-05-30T02:31:12.365Z,0.00
2019-05-30T02:32:11.805Z,0.00
2019-05-30T02:33:12.876Z,0.00
2019-05-30T02:34:32.750Z,0.00
2019-05-30T02:35:12.859Z,0.00
2019-05-30T02:36:12.688Z,0.00
2019-05-30T02:37:12.823Z,0.00
2019-05-30T02:38:12.081Z,0.00
2019-05-30T02:39:12.165Z,0.00
2019-05-30T02:40:32.593Z,0.00
2019-05-30T02:41:12.565Z,0.00
2019-05-30T02:42:11.754Z,0.00
2019-05-30T02:43:12.144Z,0.00
2019-05-30T02:44:12.460Z,0.00
2019-05-30T02:45:12.505Z,0.00
2019-05-30T02:46:32.449Z,0.00
2019-05-30T02:47:11.694Z,0.00
2019-05-30T02:48:12.185Z,0.00
2019-05-30T02:49:13.586Z,0.00
2019-05-30T02:50:13.717Z,0.00
2019-05-30T02:51:12.746Z,0.00
2019-05-30T02:52:32.282Z,0.00
2019-05-30T02:53:13.095Z,0.00
2019-05-30T02:54:13.078Z,0.00
2019-05-30T02:55:13.260Z,0.00
2019-05-30T02:56:12.659Z,0.00
2019-05-30T02:57:12.581Z,0.00
2019-05-30T02:58:32.125Z,0.00
2019-05-30T02:59:13.294Z,0.00
2019-05-30T03:00:16.463Z,0.00
2019-05-30T03:01:12.154Z,5.63
2019-05-30T03:02:15.237Z,5.63
2019-05-30T03:03:13.879Z,5.63
2019-05-30T03:04:31.974Z,5.63
2019-05-30T03:05:12.822Z,5.63
2019-05-30T03:06:13.536Z,5.63
2019-05-30T03:07:12.894Z,11.25
2019-05-30T03:08:13.907Z,11.25
2019-05-30T03:09:11.518Z,11.25
2019-05-30T03:10:31.827Z,11.25
2019-05-30T03:11:13.541Z,11.25
2019-05-30T03:12:11.551Z,16.88
2019-05-30T03:13:12.482Z,16.88
2019-05-30T03:14:16.704Z,16.88
2019-05-30T03:15:13.009Z,22.50
2019-05-30T03:16:31.657Z,22.50
2019-05-30T03:17:12.615Z,22.50
2019-05-30T03:18:12.781Z,28.13
2019-05-30T03:19:12.296Z,28.13
2019-05-30T03:20:18.954Z,28.13
2019-05-30T03:21:12.989Z,33.75
2019-05-30T03:22:31.518Z,33.75
2019-05-30T03:23:12.128Z,33.75
2019-05-30T03:24:13.698Z,39.38
2019-05-30T03:25:13.612Z,39.38
2019-05-30T03:26:12.462Z,45.00
2019-05-30T03:27:12.393Z,45.00
2019-05-30T03:28:31.343Z,50.63
2019-05-30T03:29:12.478Z,56.25
2019-05-30T03:30:21.868Z,56.25
2019-05-30T03:31:21.269Z,61.88
2019-05-30T03:32:48.970Z,61.88
2019-05-30T03:33:32.968Z,67.50
2019-05-30T03:34:31.186Z,67.50
2019-05-30T03:35:21.679Z,73.13
2019-05-30T03:36:22.105Z,78.75
2019-05-30T03:37:18.832Z,78.75
2019-05-30T03:38:11.013Z,84.38
2019-05-30T03:39:12.451Z,90.00
2019-05-30T03:40:32.064Z,90.00
2019-05-30T03:41:12.025Z,95.63
2019-05-30T03:42:11.789Z,101.25
2019-05-30T03:43:11.669Z,101.25
2019-05-30T03:44:11.472Z,106.88
2019-05-30T03:45:11.976Z,112.50
2019-05-30T03:46:30.874Z,112.50
2019-05-30T03:47:11.663Z,118.13
2019-05-30T03:48:11.448Z,123.75
2019-05-30T03:49:10.849Z,129.38
2019-05-30T03:50:11.824Z,129.38
2019-05-30T03:51:11.248Z,135.00
2019-05-30T03:52:30.722Z,140.63
2019-05-30T03:53:11.621Z,146.25
2019-05-30T03:54:11.577Z,146.25
2019-05-30T03:55:11.898Z,151.88
2019-05-30T03:56:11.557Z,157.50
2019-05-30T03:57:11.107Z,163.13
2019-05-30T03:58:30.556Z,163.13
2019-05-30T03:59:10.274Z,168.75
2019-05-30T04:00:11.216Z,174.38
2019-05-30T04:01:10.119Z,174.38
2019-05-30T04:02:11.050Z,180.00
2019-05-30T04:03:11.242Z,185.63
2019-05-30T04:04:30.412Z,191.25
2019-05-30T04:05:11.276Z,191.25
2019-05-30T04:06:10.156Z,196.88
2019-05-30T04:07:11.408Z,202.50
2019-05-30T04:08:10.048Z,208.13
2019-05-30T04:09:10.293Z,213.75
2019-05-30T04:10:30.253Z,213.75
2019-05-30T04:11:10.455Z,219.38
2019-05-30T04:12:10.588Z,225.00
2019-05-30T04:13:09.911Z,230.63
2019-05-30T04:14:10.896Z,236.25
2019-05-30T04:15:10.018Z,241.88
2019-05-30T04:16:30.106Z,241.88
2019-05-30T04:17:12.483Z,247.50
2019-05-30T04:18:09.570Z,253.13
2019-05-30T04:19:09.920Z,258.75
2019-05-30T04:20:09.820Z,264.38
2019-05-30T04:21:10.832Z,264.38
2019-05-30T04:22:29.960Z,270.00
2019-05-30T04:23:10.711Z,275.63
2019-05-30T04:24:09.761Z,275.63
2019-05-30T04:25:10.072Z,281.25
2019-05-30T04:26:09.702Z,286.88
2019-05-30T04:27:09.901Z,286.88
2019-05-30T04:28:29.810Z,292.50
2019-05-30T04:29:09.843Z,298.13
2019-05-30T04:30:10.006Z,298.13
2019-05-30T04:31:09.999Z,303.75
2019-05-30T04:32:10.219Z,309.38
2019-05-30T04:33:22.539Z,315.00
2019-05-30T04:34:29.655Z,315.00
2019-05-30T04:35:10.180Z,320.63
2019-05-30T04:36:08.933Z,326.25
2019-05-30T04:37:08.577Z,326.25
2019-05-30T04:38:08.673Z,331.88
2019-05-30T04:39:08.971Z,331.88
2019-05-30T04:40:29.496Z,337.50
2019-05-30T04:41:08.878Z,343.13
2019-05-30T04:42:09.387Z,343.13
2019-05-30T04:43:09.104Z,348.75
2019-05-30T04:44:09.799Z,348.75
2019-05-30T04:45:09.621Z,354.38
2019-05-30T04:46:29.360Z,354.38
2019-05-30T04:47:09.890Z,354.38
2019-05-30T04:48:09.764Z,360.00
2019-05-30T04:49:09.947Z,360.00
2019-05-30T04:50:09.981Z,365.63
2019-05-30T04:51:10.020Z,365.63
2019-05-30T04:52:29.199Z,371.25
2019-05-30T04:53:10.001Z,371.25
2019-05-30T04:54:08.149Z,376.88
2019-05-30T04:55:08.137Z,376.88
2019-05-30T04:56:08.120Z,376.88
2019-05-30T04:57:08.077Z,376.88
2019-05-30T04:58:29.065Z,382.50
2019-05-30T04:59:08.031Z,382.50
2019-05-30T05:00:08.020Z,388.13
2019-05-30T05:01:07.981Z,388.13
2019-05-30T05:02:07.964Z,393.75
2019-05-30T05:03:07.944Z,399.38
2019-05-30T05:04:28.910Z,405.00
2019-05-30T05:05:07.899Z,410.63
2019-05-30T05:06:07.861Z,416.25
2019-05-30T05:07:07.852Z,421.88
2019-05-30T05:08:07.831Z,421.88
2019-05-30T05:09:07.793Z,427.50
2019-05-30T05:10:28.769Z,427.50
2019-05-30T05:11:12.261Z,433.13
2019-05-30T05:12:07.725Z,433.13
2019-05-30T05:13:07.697Z,433.13
2019-05-30T05:14:07.677Z,438.75
2019-05-30T05:15:07.658Z,444.38
2019-05-30T05:16:35.703Z,444.38
2019-05-30T05:17:07.601Z,444.38
2019-05-30T05:18:07.582Z,450.00
2019-05-30T05:19:07.553Z,450.00
2019-05-30T05:20:07.530Z,455.63
2019-05-30T05:21:07.520Z,455.63
2019-05-30T05:22:28.485Z,461.25
2019-05-30T05:23:07.469Z,472.50
2019-05-30T05:24:07.442Z,500.63
2019-05-30T05:25:07.424Z,506.25
2019-05-30T05:26:07.396Z,500.63
2019-05-30T05:27:09.847Z,495.00
2019-05-30T05:28:28.345Z,511.88
2019-05-30T05:29:07.331Z,523.13
2019-05-30T05:30:07.299Z,568.13
2019-05-30T05:31:07.277Z,652.50
2019-05-30T05:32:07.255Z,714.38
2019-05-30T05:33:07.235Z,776.25
2019-05-30T05:34:28.209Z,753.75
2019-05-30T05:35:07.184Z,708.75
2019-05-30T05:36:07.163Z,765.00
2019-05-30T05:37:07.146Z,849.38
2019-05-30T05:38:07.120Z,911.25
2019-05-30T05:39:07.094Z,950.63
2019-05-30T05:40:28.536Z,1012.50
2019-05-30T05:41:07.051Z,1035.00
2019-05-30T05:42:07.025Z,1063.13
2019-05-30T05:43:07.007Z,1085.63
2019-05-30T05:44:06.983Z,1029.38
2019-05-30T05:45:06.962Z,1096.88
2019-05-30T05:46:28.709Z,1226.25
2019-05-30T05:47:06.915Z,1271.25
2019-05-30T05:48:06.904Z,1310.63
2019-05-30T05:49:06.883Z,1355.63
2019-05-30T05:50:06.858Z,1366.88
2019-05-30T05:51:06.845Z,1395.00
2019-05-30T05:52:28.880Z,1445.63
2019-05-30T05:53:06.798Z,1501.88
2019-05-30T05:54:06.776Z,1546.88
2019-05-30T05:55:06.770Z,1518.75
2019-05-30T05:56:06.734Z,1344.38
2019-05-30T05:57:06.722Z,1209.38
2019-05-30T05:58:27.707Z,1226.25
2019-05-30T05:59:06.683Z,1254.38
2019-05-30T06:00:06.664Z,1271.25
2019-05-30T06:01:06.649Z,1293.75
2019-05-30T06:02:06.626Z,1305.00
2019-05-30T06:03:06.610Z,1333.13
2019-05-30T06:04:27.622Z,1355.63
2019-05-30T06:05:06.571Z,1378.13
2019-05-30T06:06:06.561Z,1395.00
2019-05-30T06:07:06.538Z,1406.25
2019-05-30T06:08:06.524Z,1406.25
2019-05-30T06:09:06.504Z,1440.00
2019-05-30T06:10:27.999Z,1479.38
2019-05-30T06:11:06.474Z,1501.88
2019-05-30T06:12:06.457Z,1462.50
2019-05-30T06:13:06.436Z,1417.50
2019-05-30T06:14:06.417Z,1468.13
2019-05-30T06:15:06.400Z,1552.50
2019-05-30T06:16:28.385Z,1575.00
2019-05-30T06:17:06.373Z,1620.00
2019-05-30T06:18:06.352Z,1620.00
2019-05-30T06:19:06.337Z,1636.88
2019-05-30T06:20:06.321Z,1648.13
2019-05-30T06:21:06.307Z,1670.63
2019-05-30T06:22:27.635Z,1670.63
2019-05-30T06:23:06.281Z,1687.50
2019-05-30T06:24:06.260Z,1681.88
2019-05-30T06:25:06.247Z,1676.25
2019-05-30T06:26:06.232Z,1687.50
2019-05-30T06:27:06.209Z,1676.25
2019-05-30T06:28:28.203Z,1642.50
2019-05-30T06:29:06.183Z,1642.50
2019-05-30T06:30:06.162Z,1631.25
2019-05-30T06:31:06.148Z,1620.00
2019-05-30T06:32:06.134Z,1614.38
2019-05-30T06:33:06.128Z,1591.88
2019-05-30T06:34:36.678Z,1648.13
2019-05-30T06:35:06.087Z,1726.88
2019-05-30T06:36:06.078Z,1738.13
2019-05-30T06:37:06.060Z,1850.63
2019-05-30T06:38:06.051Z,1923.75
2019-05-30T06:39:06.041Z,1957.50
2019-05-30T06:40:30.351Z,1968.75
2019-05-30T06:41:05.998Z,2002.50
2019-05-30T06:42:05.988Z,2013.75
2019-05-30T06:43:05.972Z,2041.88
2019-05-30T06:44:05.978Z,2064.38
2019-05-30T06:45:05.946Z,2109.38
2019-05-30T06:46:26.930Z,2131.88
2019-05-30T06:47:05.913Z,2154.38
2019-05-30T06:48:05.905Z,2182.50
2019-05-30T06:49:05.892Z,2205.00
2019-05-30T06:50:05.870Z,2233.13
2019-05-30T06:51:05.856Z,2261.25
2019-05-30T06:52:27.137Z,1901.25
2019-05-30T06:53:05.828Z,2283.75
2019-05-30T06:54:05.818Z,2205.00
2019-05-30T06:55:05.804Z,2368.13
2019-05-30T06:56:05.800Z,2413.13
2019-05-30T06:57:05.796Z,2463.75
2019-05-30T06:58:41.514Z,2463.75
2019-05-30T06:59:05.758Z,2452.50
2019-05-30T07:00:05.739Z,2452.50
2019-05-30T07:01:05.729Z,2514.38
2019-05-30T07:02:05.709Z,2475.00
2019-05-30T07:03:05.814Z,2430.00
2019-05-30T07:04:27.827Z,2430.00
2019-05-30T07:05:06.367Z,2323.13
2019-05-30T07:06:06.098Z,2261.25
2019-05-30T07:07:06.250Z,2323.13
2019-05-30T07:08:05.640Z,2340.00
2019-05-30T07:09:05.623Z,2514.38
2019-05-30T07:10:26.830Z,2525.63
2019-05-30T07:11:05.599Z,2587.50
2019-05-30T07:12:05.585Z,2604.38
2019-05-30T07:13:05.582Z,2610.00
2019-05-30T07:14:05.573Z,2626.88
2019-05-30T07:15:05.554Z,2700.00
2019-05-30T07:16:27.350Z,2761.88
2019-05-30T07:17:05.529Z,2801.25
2019-05-30T07:18:05.518Z,2868.75
2019-05-30T07:19:05.503Z,2908.13
2019-05-30T07:20:05.497Z,2756.25
2019-05-30T07:21:05.477Z,2930.63
2019-05-30T07:22:27.636Z,2953.13
2019-05-30T07:23:05.456Z,3009.38
2019-05-30T07:24:05.444Z,3003.75
2019-05-30T07:25:05.436Z,2970.00
2019-05-30T07:26:05.416Z,3003.75
2019-05-30T07:27:05.410Z,3015.00
2019-05-30T07:28:26.412Z,3020.63
2019-05-30T07:29:05.386Z,3048.75
2019-05-30T07:30:05.384Z,3116.25
2019-05-30T07:31:05.364Z,3105.00
2019-05-30T07:32:05.369Z,3110.63
2019-05-30T07:33:05.385Z,3133.13
2019-05-30T07:34:26.343Z,3133.13
2019-05-30T07:35:07.101Z,3150.00
2019-05-30T07:36:05.308Z,3172.50
2019-05-30T07:37:05.296Z,3217.50
2019-05-30T07:38:05.288Z,3228.75
2019-05-30T07:39:05.283Z,3234.38
2019-05-30T07:40:26.612Z,3234.38
2019-05-30T07:41:05.262Z,3290.63
2019-05-30T07:42:06.432Z,3256.88
2019-05-30T07:43:05.233Z,3324.38
2019-05-30T07:44:05.241Z,3346.88
2019-05-30T07:45:05.212Z,3307.50
2019-05-30T07:46:26.789Z,3324.38
2019-05-30T07:47:05.190Z,3324.38
2019-05-30T07:48:05.191Z,3301.88
2019-05-30T07:49:05.181Z,3296.25
2019-05-30T07:50:05.161Z,3307.50
2019-05-30T07:51:05.145Z,3290.63
2019-05-30T07:52:26.453Z,3307.50
2019-05-30T07:53:05.128Z,3313.13
2019-05-30T07:54:05.122Z,3324.38
2019-05-30T07:55:05.114Z,3335.63
2019-05-30T07:56:05.104Z,3324.38
2019-05-30T07:57:05.112Z,3335.63
2019-05-30T07:58:27.004Z,3391.88
2019-05-30T07:59:05.075Z,3403.13
2019-05-30T08:00:05.047Z,3436.88
2019-05-30T08:01:05.048Z,3476.25
2019-05-30T08:02:05.030Z,3481.88
2019-05-30T08:03:05.023Z,3465.00
2019-05-30T08:04:26.018Z,3442.50
2019-05-30T08:05:05.001Z,3420.00
2019-05-30T08:06:04.988Z,3397.50
2019-05-30T08:07:04.985Z,3414.38
2019-05-30T08:08:04.965Z,3414.38
2019-05-30T08:09:04.967Z,3425.63
2019-05-30T08:10:25.959Z,3442.50
2019-05-30T08:11:09.435Z,3453.75
2019-05-30T08:12:04.925Z,3459.38
2019-05-30T08:13:04.922Z,3481.88
2019-05-30T08:14:04.915Z,3510.00
2019-05-30T08:15:04.900Z,3515.63
2019-05-30T08:16:27.025Z,3515.63
2019-05-30T08:17:04.873Z,3504.38
2019-05-30T08:18:04.867Z,3493.13
2019-05-30T08:19:04.852Z,3459.38
2019-05-30T08:20:04.842Z,3470.63
2019-05-30T08:21:04.836Z,3453.75
2019-05-30T08:22:25.834Z,3459.38
2019-05-30T08:23:04.814Z,3470.63
2019-05-30T08:24:04.803Z,3470.63
2019-05-30T08:25:04.795Z,3498.75
2019-05-30T08:26:04.783Z,3504.38
2019-05-30T08:27:04.781Z,3515.63
2019-05-30T08:28:25.772Z,3521.25
2019-05-30T08:29:04.757Z,3521.25
2019-05-30T08:30:04.766Z,3498.75
2019-05-30T08:31:04.733Z,3510.00
2019-05-30T08:32:04.728Z,3521.25
2019-05-30T08:33:04.721Z,3532.50
2019-05-30T08:34:25.713Z,3543.75
2019-05-30T08:35:04.692Z,3538.13
2019-05-30T08:36:05.774Z,3521.25
2019-05-30T08:37:04.674Z,3538.13
2019-05-30T08:38:04.668Z,3543.75
2019-05-30T08:39:04.651Z,3549.38
2019-05-30T08:40:25.654Z,3549.38
2019-05-30T08:41:04.645Z,3566.25
2019-05-30T08:42:04.622Z,3583.13
2019-05-30T08:43:04.623Z,3628.13
2019-05-30T08:44:04.604Z,3656.25
2019-05-30T08:45:04.593Z,3661.88
2019-05-30T08:46:25.590Z,3673.13
2019-05-30T08:47:04.572Z,3706.88
2019-05-30T08:48:04.561Z,3763.13
2019-05-30T08:49:04.553Z,3774.38
2019-05-30T08:50:04.543Z,3774.38
2019-05-30T08:51:04.532Z,3763.13
2019-05-30T08:52:25.529Z,3757.50
2019-05-30T08:53:04.525Z,3757.50
2019-05-30T08:54:04.511Z,3757.50
2019-05-30T08:55:04.502Z,3825.00
2019-05-30T08:56:04.494Z,3875.63
2019-05-30T08:57:04.474Z,3909.38
2019-05-30T08:58:25.480Z,3909.38
2019-05-30T08:59:04.461Z,4016.25
2019-05-30T09:00:04.449Z,4100.63
2019-05-30T09:01:04.475Z,4123.13
2019-05-30T09:02:04.426Z,4128.75
2019-05-30T09:03:04.424Z,4173.75
2019-05-30T09:04:25.445Z,4235.63
2019-05-30T09:05:06.882Z,4134.38
2019-05-30T09:06:04.619Z,4263.75
2019-05-30T09:07:04.381Z,4297.50
2019-05-30T09:08:04.369Z,4286.25
2019-05-30T09:09:04.372Z,4331.25
2019-05-30T09:10:25.359Z,4331.25
2019-05-30T09:11:04.349Z,4404.38
2019-05-30T09:12:04.332Z,4426.88
2019-05-30T09:13:04.326Z,4432.50
2019-05-30T09:14:04.314Z,4488.75
2019-05-30T09:15:04.305Z,4488.75
2019-05-30T09:16:25.305Z,4494.38
2019-05-30T09:17:04.287Z,4483.13
2019-05-30T09:18:04.291Z,4500.00
2019-05-30T09:19:04.273Z,4500.00
2019-05-30T09:20:04.267Z,4449.38
2019-05-30T09:21:04.248Z,4443.75
2019-05-30T09:22:25.244Z,4381.88
2019-05-30T09:23:04.231Z,4325.63
2019-05-30T09:24:04.275Z,4297.50
2019-05-30T09:25:04.213Z,4269.38
2019-05-30T09:26:04.213Z,4303.13
2019-05-30T09:27:04.196Z,4336.88
2019-05-30T09:28:25.194Z,4404.38
2019-05-30T09:29:04.187Z,4466.25
2019-05-30T09:30:04.169Z,4584.38
2019-05-30T09:31:04.171Z,4747.50
2019-05-30T09:32:04.161Z,4786.88
2019-05-30T09:33:04.142Z,4820.63
2019-05-30T09:34:25.163Z,4927.50
2019-05-30T09:35:04.127Z,4983.75
2019-05-30T09:36:13.231Z,4950.00
2019-05-30T09:37:04.113Z,4882.50
2019-05-30T09:38:04.103Z,4843.13
2019-05-30T09:39:04.104Z,4893.75
2019-05-30T09:40:25.087Z,4972.50
2019-05-30T09:41:04.072Z,4995.00
2019-05-30T09:42:04.065Z,5045.63
2019-05-30T09:43:04.050Z,5056.88
2019-05-30T09:44:04.058Z,5130.00
2019-05-30T09:45:04.041Z,5141.25
2019-05-30T09:46:25.041Z,5152.50
2019-05-30T09:47:04.034Z,5175.00
2019-05-30T09:48:04.022Z,5169.38
2019-05-30T09:49:04.006Z,5034.38
2019-05-30T09:50:04.089Z,5118.75
2019-05-30T09:51:03.986Z,5220.00
2019-05-30T09:52:24.984Z,5242.50
2019-05-30T09:53:03.974Z,5326.88
2019-05-30T09:54:03.971Z,3538.13
2019-05-30T09:55:03.963Z,5360.63
2019-05-30T09:56:03.950Z,5416.88
2019-05-30T09:57:03.944Z,5501.25
2019-05-30T09:58:24.933Z,5540.63
2019-05-30T09:59:03.912Z,5461.88
2019-05-30T10:00:03.911Z,5523.75
2019-05-30T10:01:03.901Z,5478.75
2019-05-30T10:02:03.889Z,5551.88
2019-05-30T10:03:03.892Z,5563.13
2019-05-30T10:04:24.882Z,5816.25
2019-05-30T10:05:03.868Z,5866.88
2019-05-30T10:06:03.853Z,1912.50
2019-05-30T10:07:03.865Z,2053.13
2019-05-30T10:08:03.842Z,6063.75
2019-05-30T10:09:03.835Z,1659.38
2019-05-30T10:10:24.837Z,6024.38
2019-05-30T10:11:03.811Z,5861.25
2019-05-30T10:12:03.811Z,5928.75
2019-05-30T10:13:03.795Z,1777.50
2019-05-30T10:14:03.782Z,5540.63
2019-05-30T10:15:03.772Z,5788.13
2019-05-30T10:16:24.772Z,5866.88
2019-05-30T10:17:03.750Z,5951.25
2019-05-30T10:18:03.748Z,5816.25
2019-05-30T10:19:03.738Z,6041.25
2019-05-30T10:20:03.731Z,5923.13
2019-05-30T10:21:03.729Z,6148.13
2019-05-30T10:22:24.724Z,3667.50
2019-05-30T10:23:03.854Z,1260.00
2019-05-30T10:24:03.700Z,1220.63
2019-05-30T10:25:03.687Z,1310.63
2019-05-30T10:26:03.697Z,1625.63
2019-05-30T10:27:03.664Z,1726.88
2019-05-30T10:28:24.678Z,3127.50
2019-05-30T10:29:03.646Z,1715.63
2019-05-30T10:30:03.653Z,1496.25
2019-05-30T10:31:03.630Z,2379.38
2019-05-30T10:32:03.617Z,1490.63
2019-05-30T10:33:03.604Z,1310.63
2019-05-30T10:34:24.611Z,5799.38
2019-05-30T10:35:03.588Z,5838.75
2019-05-30T10:36:03.681Z,5838.75
2019-05-30T10:37:03.560Z,5821.88
2019-05-30T10:38:03.561Z,5855.63
2019-05-30T10:39:03.539Z,5883.75
2019-05-30T10:40:24.538Z,5934.38
2019-05-30T10:41:03.520Z,6097.50
2019-05-30T10:42:03.512Z,6226.88
2019-05-30T10:43:03.502Z,6401.25
2019-05-30T10:44:03.489Z,6356.25
2019-05-30T10:45:03.483Z,4618.13
2019-05-30T10:46:24.483Z,6316.88
2019-05-30T10:47:03.479Z,5872.50
2019-05-30T10:48:03.477Z,3105.00
2019-05-30T10:49:03.442Z,1890.00
2019-05-30T10:50:03.446Z,1850.63
2019-05-30T10:51:03.421Z,2531.25
2019-05-30T10:52:24.428Z,5101.88
2019-05-30T10:53:03.411Z,6620.63
2019-05-30T10:54:03.409Z,2638.13
2019-05-30T10:55:03.391Z,6446.25
2019-05-30T10:56:03.385Z,6463.13
2019-05-30T10:57:03.393Z,4044.38
2019-05-30T10:58:24.372Z,2610.00
2019-05-30T10:59:03.357Z,2638.13
2019-05-30T11:00:03.343Z,2458.13
2019-05-30T11:01:03.340Z,2975.63
2019-05-30T11:02:03.321Z,4393.13
2019-05-30T11:03:03.314Z,3566.25
2019-05-30T11:04:24.313Z,5985.00
2019-05-30T11:05:03.318Z,5636.25
2019-05-30T11:06:03.310Z,5776.88
2019-05-30T11:07:11.031Z,3420.00
2019-05-30T11:08:06.118Z,4989.38
2019-05-30T11:09:03.269Z,1676.25
2019-05-30T11:10:24.252Z,1659.38
2019-05-30T11:11:03.239Z,1760.63
2019-05-30T11:12:03.228Z,1873.13
2019-05-30T11:13:05.810Z,1546.88
2019-05-30T11:14:03.205Z,1378.13
2019-05-30T11:15:03.214Z,1248.75
2019-05-30T11:16:24.190Z,1158.75
2019-05-30T11:17:03.182Z,1096.88
2019-05-30T11:18:03.172Z,1040.63
2019-05-30T11:19:07.315Z,995.63
2019-05-30T11:20:03.151Z,950.63
2019-05-30T11:21:03.139Z,905.63
2019-05-30T11:22:24.149Z,860.63
2019-05-30T11:23:03.110Z,838.13
2019-05-30T11:24:03.112Z,832.50
2019-05-30T11:25:03.099Z,838.13
2019-05-30T11:26:03.085Z,860.63
2019-05-30T11:27:03.078Z,888.75
2019-05-30T11:28:24.055Z,939.38
2019-05-30T11:29:03.059Z,995.63
2019-05-30T11:30:03.031Z,1063.13
2019-05-30T11:31:04.675Z,1125.00
2019-05-30T11:32:03.009Z,1158.75
2019-05-30T11:33:02.993Z,1153.13
2019-05-30T11:34:23.984Z,1130.63
2019-05-30T11:35:02.965Z,1096.88
2019-05-30T11:36:02.952Z,1085.63
2019-05-30T11:37:18.227Z,1102.50
2019-05-30T11:38:02.953Z,1141.88
2019-05-30T11:39:02.923Z,1215.00
2019-05-30T11:40:23.913Z,1299.38
2019-05-30T11:41:02.889Z,1372.50
2019-05-30T11:42:02.892Z,1428.75
2019-05-30T11:43:02.868Z,1468.13
2019-05-30T11:44:04.220Z,1490.63
2019-05-30T11:45:02.841Z,1507.50
2019-05-30T11:46:23.837Z,1501.88
2019-05-30T11:47:02.818Z,1445.63
2019-05-30T11:48:02.809Z,1366.88
2019-05-30T11:49:02.786Z,1350.00
2019-05-30T11:50:02.786Z,1366.88
2019-05-30T11:51:02.762Z,1383.75
2019-05-30T11:52:23.759Z,1383.75
2019-05-30T11:53:02.733Z,1372.50
2019-05-30T11:54:02.721Z,1400.63
2019-05-30T11:55:02.707Z,1473.75
2019-05-30T11:56:02.690Z,1580.63
2019-05-30T11:57:02.681Z,2019.38
2019-05-30T11:58:23.671Z,1715.63
2019-05-30T11:59:02.655Z,1636.88
2019-05-30T12:00:02.647Z,1631.25
2019-05-30T12:01:02.625Z,1636.88
2019-05-30T12:02:02.647Z,1648.13
2019-05-30T12:03:02.600Z,1676.25
2019-05-30T12:04:23.596Z,1715.63
2019-05-30T12:05:02.575Z,1749.38
2019-05-30T12:06:02.552Z,1816.88
2019-05-30T12:07:02.545Z,1957.50
2019-05-30T12:08:02.537Z,2244.38
2019-05-30T12:09:02.524Z,2891.25
2019-05-30T12:10:23.510Z,3870.00
2019-05-30T12:11:02.503Z,3684.38
2019-05-30T12:12:02.479Z,3206.25
2019-05-30T12:13:02.470Z,3088.13
2019-05-30T12:14:02.475Z,2975.63
2019-05-30T12:15:02.443Z,3937.50
2019-05-30T12:16:23.434Z,2165.63
2019-05-30T12:17:02.455Z,1665.00
2019-05-30T12:18:02.557Z,1462.50
2019-05-30T12:19:02.403Z,1389.38
2019-05-30T12:20:02.383Z,1316.25
2019-05-30T12:21:02.386Z,1355.63
2019-05-30T12:22:23.375Z,1456.88
2019-05-30T12:23:02.354Z,1575.00
2019-05-30T12:24:02.727Z,1743.75
2019-05-30T12:25:02.697Z,1968.75
2019-05-30T12:26:02.416Z,1771.88
2019-05-30T12:27:02.412Z,1783.13
2019-05-30T12:28:23.288Z,1850.63